createdAt,value
2017-11-14T00:02:01.393Z,4.00
2017-11-14T00:04:29.034Z,4.00
2017-11-14T00:06:56.541Z,3.90
2017-11-14T00:09:24.172Z,3.90
2017-11-14T00:11:52.620Z,3.90
2017-11-14T00:14:20.385Z,3.90
2017-11-14T00:16:48.149Z,3.80
2017-11-14T00:19:15.658Z,3.80
2017-11-14T00:21:43.162Z,3.70
2017-11-14T00:24:10.660Z,3.70
2017-11-14T00:26:39.034Z,3.70
2017-11-14T00:29:06.650Z,3.70
2017-11-14T00:31:34.152Z,3.60
2017-11-14T00:34:01.657Z,3.70
2017-11-14T00:36:29.301Z,3.70
2017-11-14T00:38:56.805Z,3.70
2017-11-14T00:41:24.561Z,3.60
2017-11-14T00:43:52.320Z,3.70
2017-11-14T00:46:20.089Z,3.70
2017-11-14T00:48:47.591Z,3.70
2017-11-14T00:51:15.090Z,3.70
2017-11-14T00:53:42.761Z,3.70
2017-11-14T00:56:10.525Z,3.70
2017-11-14T00:58:38.037Z,3.70
2017-11-14T01:01:05.705Z,3.80
2017-11-14T01:03:33.205Z,3.80
2017-11-14T01:06:00.706Z,3.80
2017-11-14T01:08:28.217Z,3.80
2017-11-14T01:10:55.732Z,3.70
2017-11-14T01:13:23.221Z,3.80
2017-11-14T01:15:50.757Z,3.80
2017-11-14T01:18:18.475Z,3.80
2017-11-14T01:20:45.988Z,3.80
2017-11-14T01:23:13.477Z,3.80
2017-11-14T01:25:41.004Z,3.60
2017-11-14T01:28:08.490Z,3.60
2017-11-14T01:30:35.994Z,3.70
2017-11-14T01:33:04.253Z,3.70
2017-11-14T01:35:31.752Z,3.70
2017-11-14T01:37:59.245Z,3.70
2017-11-14T01:40:26.861Z,3.80
2017-11-14T01:42:54.356Z,3.80
2017-11-14T01:45:21.874Z,3.60
2017-11-14T01:47:49.374Z,3.60
2017-11-14T01:50:17.002Z,3.50
2017-11-14T01:52:44.500Z,3.60
2017-11-14T01:55:12.193Z,3.60
2017-11-14T01:57:39.697Z,3.60
2017-11-14T02:00:07.197Z,3.60
2017-11-14T02:02:34.925Z,3.60
2017-11-14T02:05:02.863Z,3.60
2017-11-14T02:07:30.445Z,3.60
2017-11-14T02:09:58.711Z,3.70
2017-11-14T02:12:26.213Z,3.70
2017-11-14T02:14:53.717Z,3.70
2017-11-14T02:17:21.217Z,3.60
2017-11-14T02:19:48.968Z,3.60
2017-11-14T02:22:16.472Z,3.70
2017-11-14T02:24:43.974Z,3.60
2017-11-14T02:27:11.468Z,3.70
2017-11-14T02:29:40.008Z,3.60
2017-11-14T02:32:07.732Z,3.60
2017-11-14T02:34:35.222Z,3.60
2017-11-14T02:37:02.993Z,3.60
2017-11-14T02:39:31.461Z,3.50
2017-11-14T02:41:58.978Z,3.60
2017-11-14T02:44:27.236Z,3.50
2017-11-14T02:46:54.750Z,3.40
2017-11-14T02:49:22.240Z,3.40
2017-11-14T02:51:49.749Z,3.40
2017-11-14T02:54:17.251Z,3.40
2017-11-14T02:56:44.750Z,3.40
2017-11-14T02:59:12.574Z,3.40
2017-11-14T03:01:40.072Z,3.40
2017-11-14T03:04:07.777Z,3.40
2017-11-14T03:06:35.546Z,3.40
2017-11-14T03:09:03.050Z,3.40
2017-11-14T03:11:30.769Z,3.30
2017-11-14T03:13:58.534Z,3.40
2017-11-14T03:16:26.029Z,3.40
2017-11-14T03:18:53.754Z,3.40
2017-11-14T03:21:21.245Z,3.40
2017-11-14T03:23:48.753Z,3.40
2017-11-14T03:26:16.249Z,3.50
2017-11-14T03:28:43.785Z,3.50
2017-11-14T03:31:11.352Z,3.50
2017-11-14T03:33:39.101Z,3.40
2017-11-14T03:36:06.588Z,3.50
2017-11-14T03:38:34.100Z,3.50
2017-11-14T03:41:01.777Z,3.50
2017-11-14T03:43:29.270Z,3.50
2017-11-14T03:45:56.768Z,3.50
2017-11-14T03:48:24.257Z,3.50
2017-11-14T03:50:51.765Z,3.40
2017-11-14T03:53:19.274Z,3.40
2017-11-14T03:55:46.785Z,3.40
2017-11-14T03:58:14.291Z,3.40
2017-11-14T04:00:42.045Z,3.50
2017-11-14T04:03:09.541Z,3.50
2017-11-14T04:05:37.245Z,3.50
2017-11-14T04:08:04.741Z,3.40
2017-11-14T04:10:32.249Z,3.50
2017-11-14T04:12:59.740Z,3.40
2017-11-14T04:15:27.240Z,3.40
2017-11-14T04:17:54.744Z,3.40
2017-11-14T04:20:22.250Z,3.40
2017-11-14T04:22:49.742Z,3.40
2017-11-14T04:25:17.234Z,3.40
2017-11-14T04:27:46.516Z,3.40
2017-11-14T04:30:14.012Z,3.40
2017-11-14T04:32:41.577Z,3.40
2017-11-14T04:35:10.120Z,3.50
2017-11-14T04:37:37.620Z,3.50
2017-11-14T04:40:05.113Z,3.60
2017-11-14T04:42:32.761Z,3.60
2017-11-14T04:45:00.257Z,3.50
2017-11-14T04:47:27.756Z,3.50
2017-11-14T04:49:55.429Z,3.50
2017-11-14T04:52:22.937Z,3.50
2017-11-14T04:54:52.230Z,3.40
2017-11-14T04:57:19.989Z,3.40
2017-11-14T04:59:47.498Z,3.50
2017-11-14T05:02:15.209Z,3.60
2017-11-14T05:04:42.704Z,3.60
2017-11-14T05:07:10.226Z,3.70
2017-11-14T05:09:37.740Z,3.70
2017-11-14T05:12:05.341Z,3.70
2017-11-14T05:14:32.836Z,3.80
2017-11-14T05:17:00.564Z,3.80
2017-11-14T05:19:28.072Z,3.80
2017-11-14T05:21:55.575Z,3.90
2017-11-14T05:24:23.236Z,3.80
2017-11-14T05:26:50.738Z,3.80
2017-11-14T05:29:18.356Z,3.80
2017-11-14T05:31:45.898Z,3.80
2017-11-14T05:34:13.679Z,3.80
2017-11-14T05:36:41.444Z,3.90
2017-11-14T05:39:09.206Z,4.00
2017-11-14T05:41:36.974Z,4.10
2017-11-14T05:44:04.489Z,3.90
2017-11-14T05:46:31.980Z,3.90
2017-11-14T05:48:59.497Z,3.90
2017-11-14T05:51:26.990Z,4.10
2017-11-14T05:53:54.552Z,4.00
2017-11-14T05:56:22.049Z,3.90
2017-11-14T05:58:49.553Z,3.90
2017-11-14T06:01:17.070Z,3.80
2017-11-14T06:03:45.345Z,3.80
2017-11-14T06:06:12.845Z,3.80
2017-11-14T06:08:40.348Z,3.80
2017-11-14T06:11:08.894Z,3.70
2017-11-14T06:13:37.104Z,3.70
2017-11-14T06:16:04.732Z,3.80
2017-11-14T06:18:32.233Z,3.60
2017-11-14T06:20:59.846Z,3.70
2017-11-14T06:23:27.412Z,3.70
2017-11-14T06:25:54.917Z,3.70
2017-11-14T06:28:22.633Z,3.70
2017-11-14T06:30:50.393Z,3.70
2017-11-14T06:33:17.945Z,3.80
2017-11-14T06:35:45.449Z,3.80
2017-11-14T06:38:13.997Z,3.90
2017-11-14T06:40:41.510Z,3.90
2017-11-14T06:43:10.158Z,3.90
2017-11-14T06:45:37.900Z,4.00
2017-11-14T06:48:05.396Z,4.10
2017-11-14T06:50:32.908Z,4.10
2017-11-14T06:53:00.584Z,4.10
2017-11-14T06:55:28.093Z,4.10
2017-11-14T06:57:55.729Z,4.10
2017-11-14T07:00:23.236Z,4.10
2017-11-14T07:02:50.731Z,4.10
2017-11-14T07:05:18.234Z,4.10
2017-11-14T07:07:45.729Z,4.10
2017-11-14T07:10:13.386Z,4.10
2017-11-14T07:12:40.884Z,4.10
2017-11-14T07:15:08.509Z,4.10
2017-11-14T07:17:36.062Z,4.10
2017-11-14T07:20:04.449Z,4.00
2017-11-14T07:22:31.952Z,4.00
2017-11-14T07:24:59.456Z,4.00
2017-11-14T07:27:27.101Z,4.10
2017-11-14T07:29:54.614Z,4.10
2017-11-14T07:32:22.336Z,4.10
2017-11-14T07:34:50.069Z,4.20
2017-11-14T07:37:17.780Z,4.10
2017-11-14T07:39:45.279Z,4.20
2017-11-14T07:42:12.786Z,4.30
2017-11-14T07:44:40.301Z,4.30
2017-11-14T07:47:07.994Z,4.30
2017-11-14T07:49:35.490Z,4.30
2017-11-14T07:52:03.189Z,4.40
2017-11-14T07:54:30.689Z,4.40
2017-11-14T07:56:58.194Z,4.40
2017-11-14T07:59:25.694Z,4.40
2017-11-14T08:01:53.192Z,4.40
2017-11-14T08:04:21.449Z,4.50
2017-11-14T08:06:48.959Z,4.50
2017-11-14T08:09:16.562Z,4.50
2017-11-14T08:11:44.082Z,4.60
2017-11-14T08:14:11.578Z,4.60
2017-11-14T08:16:39.622Z,4.60
2017-11-14T08:19:07.117Z,4.60
2017-11-14T08:21:34.615Z,4.60
2017-11-14T08:24:02.866Z,4.60
2017-11-14T08:26:30.361Z,4.60
2017-11-14T08:28:57.865Z,4.60
2017-11-14T08:31:25.362Z,4.60
2017-11-14T08:33:52.861Z,4.60
2017-11-14T08:36:20.360Z,4.70
2017-11-14T08:38:47.975Z,4.70
2017-11-14T08:41:15.724Z,4.70
2017-11-14T08:43:43.225Z,4.70
2017-11-14T08:46:10.897Z,4.80
2017-11-14T08:48:38.396Z,4.90
2017-11-14T08:51:06.156Z,4.90
2017-11-14T08:53:33.682Z,4.90
2017-11-14T08:56:01.340Z,5.00
2017-11-14T08:58:29.141Z,5.00
2017-11-14T09:00:56.904Z,5.10
2017-11-14T09:03:24.414Z,5.00
2017-11-14T09:05:52.121Z,5.10
2017-11-14T09:08:19.625Z,5.10
2017-11-14T09:10:47.133Z,5.00
2017-11-14T09:13:14.642Z,5.10
2017-11-14T09:15:42.138Z,5.10
2017-11-14T09:18:09.649Z,5.10
2017-11-14T09:20:37.477Z,5.10
2017-11-14T09:23:05.017Z,5.20
2017-11-14T09:25:32.701Z,5.10
2017-11-14T09:28:00.493Z,5.20
2017-11-14T09:30:28.235Z,5.20
2017-11-14T09:32:55.741Z,5.20
2017-11-14T09:35:23.431Z,5.30
2017-11-14T09:37:50.927Z,5.30
2017-11-14T09:40:18.669Z,5.30
2017-11-14T09:42:46.753Z,5.30
2017-11-14T09:45:14.261Z,5.30
2017-11-14T09:47:41.757Z,5.40
2017-11-14T09:50:09.266Z,5.40
2017-11-14T09:52:36.757Z,5.40
2017-11-14T09:55:04.307Z,5.40
2017-11-14T09:57:31.813Z,5.50
2017-11-14T09:59:59.597Z,5.60
2017-11-14T10:02:27.089Z,5.60
2017-11-14T10:04:54.598Z,5.70
2017-11-14T10:07:23.048Z,5.80
2017-11-14T10:09:50.564Z,5.80
2017-11-14T10:12:18.069Z,5.90
2017-11-14T10:14:45.575Z,5.90
2017-11-14T10:17:14.826Z,5.90
2017-11-14T10:19:42.358Z,5.90
2017-11-14T10:22:09.862Z,5.90
2017-11-14T10:24:37.366Z,6.00
2017-11-14T10:27:04.964Z,5.90
2017-11-14T10:29:32.456Z,6.00
2017-11-14T10:31:59.963Z,6.00
2017-11-14T10:34:27.462Z,6.00
2017-11-14T10:36:55.737Z,6.10
2017-11-14T10:39:24.181Z,6.00
2017-11-14T10:41:51.791Z,6.10
2017-11-14T10:44:19.302Z,6.00
2017-11-14T10:46:47.011Z,6.00
2017-11-14T10:49:14.492Z,6.10
2017-11-14T10:51:42.005Z,6.10
2017-11-14T10:54:09.509Z,6.10
2017-11-14T10:56:37.190Z,6.20
2017-11-14T10:59:04.693Z,6.20
2017-11-14T11:01:32.225Z,6.20
2017-11-14T11:03:59.711Z,6.30
2017-11-14T11:06:28.240Z,6.30
2017-11-14T11:08:55.740Z,6.30
2017-11-14T11:11:23.266Z,6.30
2017-11-14T11:13:50.757Z,6.40
2017-11-14T11:16:30.794Z,6.40
2017-11-14T11:18:58.287Z,6.40
2017-11-14T11:21:25.777Z,6.40
2017-11-14T11:23:53.317Z,6.50
2017-11-14T11:26:21.114Z,6.40
2017-11-14T11:28:48.613Z,6.40
2017-11-14T11:31:16.177Z,6.40
2017-11-14T11:33:44.445Z,6.40
2017-11-14T11:36:11.953Z,6.40
2017-11-14T11:38:39.462Z,6.40
2017-11-14T11:41:07.734Z,6.40
2017-11-14T11:43:35.245Z,6.30
2017-11-14T11:46:02.741Z,6.30
2017-11-14T11:48:31.960Z,6.20
2017-11-14T11:50:59.466Z,6.20
2017-11-14T11:53:26.983Z,6.30
2017-11-14T11:55:54.572Z,6.30
2017-11-14T11:58:22.076Z,6.30
2017-11-14T12:00:49.578Z,6.20
2017-11-14T12:03:17.080Z,6.20
2017-11-14T12:05:45.353Z,6.20
2017-11-14T12:08:12.857Z,6.20
2017-11-14T12:10:40.360Z,6.20
2017-11-14T12:13:08.009Z,6.20
2017-11-14T12:15:35.508Z,6.10
2017-11-14T12:18:03.010Z,6.10
2017-11-14T12:20:30.533Z,6.10
2017-11-14T12:22:58.139Z,6.10
2017-11-14T12:25:25.638Z,6.10
2017-11-14T12:27:53.156Z,6.00
2017-11-14T12:30:20.686Z,6.10
2017-11-14T12:32:48.186Z,6.00
2017-11-14T12:35:15.699Z,6.00
2017-11-14T12:37:43.213Z,6.00
2017-11-14T12:40:10.812Z,6.00
2017-11-14T12:42:38.398Z,5.90
2017-11-14T12:45:05.908Z,6.00
2017-11-14T12:47:33.398Z,6.00
2017-11-14T12:50:01.078Z,5.90
2017-11-14T12:52:28.584Z,5.90
2017-11-14T12:54:56.168Z,6.00
2017-11-14T12:57:23.649Z,6.00
2017-11-14T12:59:51.190Z,6.00
2017-11-14T13:02:18.678Z,5.90
2017-11-14T13:04:47.693Z,6.00
2017-11-14T13:07:15.190Z,6.00
2017-11-14T13:09:42.880Z,6.00
2017-11-14T13:12:10.598Z,6.00
2017-11-14T13:14:38.584Z,6.00
2017-11-14T13:17:06.154Z,6.00
2017-11-14T13:19:34.478Z,6.10
2017-11-14T13:22:02.005Z,6.00
2017-11-14T13:24:29.518Z,6.00
2017-11-14T13:26:57.254Z,6.00
2017-11-14T13:29:25.118Z,6.10
2017-11-14T13:31:52.616Z,6.00
2017-11-14T13:34:20.121Z,6.00
2017-11-14T13:36:47.631Z,6.00
2017-11-14T13:39:15.134Z,6.10
2017-11-14T13:41:42.791Z,6.10
2017-11-14T13:44:10.333Z,6.10
2017-11-14T13:46:38.106Z,6.10
2017-11-14T13:49:05.862Z,6.10
2017-11-14T13:51:33.403Z,6.10
2017-11-14T13:54:01.041Z,6.10
2017-11-14T13:56:28.756Z,6.10
2017-11-14T13:58:56.298Z,6.10
2017-11-14T14:01:23.809Z,6.10
2017-11-14T14:03:51.521Z,6.20
2017-11-14T14:06:19.026Z,6.10
2017-11-14T14:08:46.589Z,6.10
2017-11-14T14:11:14.858Z,6.20
2017-11-14T14:13:42.376Z,6.20
2017-11-14T14:16:10.599Z,6.10
2017-11-14T14:18:38.102Z,6.20
2017-11-14T14:21:06.332Z,6.20
2017-11-14T14:23:34.601Z,6.20
2017-11-14T14:26:02.120Z,6.20
2017-11-14T14:28:29.616Z,6.20
2017-11-14T14:30:58.009Z,6.30
2017-11-14T14:33:25.504Z,6.30
2017-11-14T14:35:53.032Z,6.40
2017-11-14T14:38:20.822Z,6.30
2017-11-14T14:40:48.596Z,6.40
2017-11-14T14:43:16.120Z,6.40
2017-11-14T14:45:43.600Z,6.40
2017-11-14T14:48:11.141Z,6.50
2017-11-14T14:50:38.665Z,6.50
2017-11-14T14:53:06.186Z,6.50
2017-11-14T14:55:33.700Z,6.50
2017-11-14T14:58:01.405Z,6.50
2017-11-14T15:00:29.181Z,6.50
2017-11-14T15:02:56.701Z,6.60
2017-11-14T15:05:24.346Z,6.50
2017-11-14T15:07:51.858Z,6.60
2017-11-14T15:10:19.368Z,6.60
2017-11-14T15:12:47.063Z,6.60
2017-11-14T15:15:14.580Z,6.60
2017-11-14T15:17:42.294Z,6.60
2017-11-14T15:20:09.797Z,6.60
2017-11-14T15:22:37.310Z,6.60
2017-11-14T15:25:04.836Z,6.70
2017-11-14T15:27:32.337Z,6.70
2017-11-14T15:29:59.845Z,6.70
2017-11-14T15:32:27.646Z,6.70
2017-11-14T15:34:55.166Z,6.70
2017-11-14T15:37:22.858Z,7.90
2017-11-14T15:39:50.617Z,8.10
2017-11-14T15:42:18.137Z,7.70
2017-11-14T15:44:45.817Z,7.20
2017-11-14T15:47:14.329Z,7.00
2017-11-14T15:49:41.851Z,7.00
2017-11-14T15:52:09.397Z,6.90
2017-11-14T15:54:36.906Z,6.90
2017-11-14T15:57:04.418Z,6.80
2017-11-14T15:59:32.105Z,6.90
2017-11-14T16:01:59.609Z,6.90
2017-11-14T16:04:27.331Z,6.90
2017-11-14T16:06:54.833Z,6.90
2017-11-14T16:09:22.525Z,6.90
2017-11-14T16:11:50.035Z,6.90
2017-11-14T16:14:17.764Z,6.90
2017-11-14T16:16:45.264Z,6.90
2017-11-14T16:19:12.789Z,6.90
2017-11-14T16:21:40.292Z,6.90
2017-11-14T16:24:08.575Z,6.90
2017-11-14T16:26:36.121Z,6.90
2017-11-14T16:29:04.394Z,7.00
2017-11-14T16:31:31.901Z,6.90
2017-11-14T16:33:59.420Z,7.00
2017-11-14T16:36:27.689Z,7.00
2017-11-14T16:38:55.408Z,7.00
2017-11-14T16:41:22.909Z,7.00
2017-11-14T16:43:50.404Z,7.00
2017-11-14T16:46:18.058Z,7.00
2017-11-14T16:48:45.769Z,7.00
2017-11-14T16:51:13.273Z,7.00
2017-11-14T16:53:40.845Z,7.10
2017-11-14T16:56:08.402Z,7.10
2017-11-14T16:58:35.981Z,7.10
2017-11-14T17:01:03.825Z,7.10
2017-11-14T17:03:31.457Z,7.10
2017-11-14T17:05:58.969Z,7.10
2017-11-14T17:08:26.490Z,7.10
2017-11-14T17:10:54.001Z,7.10
2017-11-14T17:13:22.249Z,7.10
2017-11-14T17:15:49.765Z,7.20
2017-11-14T17:18:17.284Z,7.20
2017-11-14T17:20:44.910Z,7.20
2017-11-14T17:23:12.414Z,7.20
2017-11-14T17:25:40.253Z,7.20
2017-11-14T17:28:07.930Z,7.30
2017-11-14T17:30:35.437Z,7.40
2017-11-14T17:33:02.942Z,7.30
2017-11-14T17:35:31.352Z,7.30
2017-11-14T17:37:59.766Z,7.30
2017-11-14T17:40:27.345Z,7.30
2017-11-14T17:42:54.852Z,7.30
2017-11-14T17:45:22.370Z,7.30
2017-11-14T17:47:49.894Z,7.20
2017-11-14T17:50:17.438Z,7.20
2017-11-14T17:52:44.949Z,7.20
2017-11-14T17:55:12.458Z,7.30
2017-11-14T17:57:40.105Z,7.30
2017-11-14T18:00:07.618Z,7.30
2017-11-14T18:02:35.128Z,7.30
2017-11-14T18:05:02.664Z,7.40
2017-11-14T18:07:30.954Z,7.40
2017-11-14T18:09:58.481Z,7.40
2017-11-14T18:12:26.097Z,7.40
2017-11-14T18:14:53.610Z,7.40
2017-11-14T18:17:21.121Z,7.40
2017-11-14T18:19:49.041Z,7.40
2017-11-14T18:22:16.769Z,7.50
2017-11-14T18:24:44.268Z,7.50
2017-11-14T18:27:11.770Z,7.50
2017-11-14T18:29:39.282Z,7.50
2017-11-14T18:32:07.075Z,7.50
2017-11-14T18:34:34.761Z,7.50
2017-11-14T18:37:02.297Z,7.50
2017-11-14T18:39:29.959Z,7.50
2017-11-14T18:41:57.460Z,7.50
2017-11-14T18:44:24.966Z,7.50
2017-11-14T18:46:52.470Z,7.50
2017-11-14T18:49:19.978Z,7.50
2017-11-14T18:51:47.725Z,7.50
2017-11-14T18:54:16.016Z,7.50
2017-11-14T18:56:43.522Z,7.50
2017-11-14T18:59:11.047Z,7.50
2017-11-14T19:01:38.604Z,7.50
2017-11-14T19:04:06.105Z,7.60
2017-11-14T19:06:34.104Z,7.60
2017-11-14T19:09:01.616Z,7.50
2017-11-14T19:11:29.136Z,7.50
2017-11-14T19:13:56.647Z,7.50
2017-11-14T19:16:24.261Z,7.50
2017-11-14T19:18:52.052Z,7.50
2017-11-14T19:21:19.561Z,7.60
2017-11-14T19:23:47.074Z,7.50
2017-11-14T19:26:14.573Z,7.60
2017-11-14T19:28:42.085Z,7.60
2017-11-14T19:31:09.601Z,7.60
2017-11-14T19:33:37.278Z,7.60
2017-11-14T19:36:04.801Z,7.60
2017-11-14T19:38:32.309Z,7.70
2017-11-14T19:40:59.814Z,7.70
2017-11-14T19:43:27.314Z,7.70
2017-11-14T19:45:54.818Z,7.60
2017-11-14T19:48:22.348Z,7.60
2017-11-14T19:50:49.855Z,7.60
2017-11-14T19:53:17.368Z,7.70
2017-11-14T19:55:44.985Z,7.70
2017-11-14T19:58:13.180Z,7.70
2017-11-14T20:00:40.683Z,7.70
2017-11-14T20:03:08.201Z,7.70
2017-11-14T20:05:35.842Z,7.70
2017-11-14T20:08:03.639Z,7.70
2017-11-14T20:10:31.401Z,7.60
2017-11-14T20:12:58.912Z,7.60
2017-11-14T20:15:26.594Z,7.70
2017-11-14T20:17:54.310Z,7.70
2017-11-14T20:20:22.726Z,7.70
2017-11-14T20:22:50.249Z,7.70
2017-11-14T20:25:17.892Z,7.70
2017-11-14T20:27:45.397Z,7.80
2017-11-14T20:30:12.906Z,7.80
2017-11-14T20:32:40.409Z,7.70
2017-11-14T20:35:08.113Z,7.70
2017-11-14T20:37:35.620Z,7.80
2017-11-14T20:40:03.125Z,7.70
2017-11-14T20:42:30.619Z,7.80
2017-11-14T20:44:58.903Z,7.80
2017-11-14T20:47:26.628Z,7.80
2017-11-14T20:49:54.142Z,7.80
2017-11-14T20:52:21.636Z,7.70
2017-11-14T20:54:49.150Z,7.70
2017-11-14T20:57:16.660Z,7.70
2017-11-14T20:59:44.184Z,7.70
2017-11-14T21:02:11.665Z,7.70
2017-11-14T21:04:39.172Z,7.60
2017-11-14T21:07:06.890Z,7.60
2017-11-14T21:09:34.658Z,7.60
2017-11-14T21:12:02.166Z,7.70
2017-11-14T21:14:29.722Z,7.70
2017-11-14T21:16:57.293Z,7.70
2017-11-14T21:19:24.815Z,7.70
2017-11-14T21:21:54.086Z,7.70
2017-11-14T21:24:21.585Z,7.70
2017-11-14T21:26:49.125Z,7.70
2017-11-14T21:29:16.625Z,7.70
2017-11-14T21:31:44.137Z,7.70
2017-11-14T21:34:11.977Z,7.70
2017-11-14T21:36:39.488Z,7.80
2017-11-14T21:39:07.202Z,7.80
2017-11-14T21:41:34.924Z,7.70
2017-11-14T21:44:02.736Z,7.70
2017-11-14T21:46:30.257Z,7.70
2017-11-14T21:48:57.953Z,7.60
2017-11-14T21:51:25.456Z,7.60
2017-11-14T21:53:53.689Z,7.60
2017-11-14T21:56:21.205Z,7.60
2017-11-14T21:58:49.003Z,7.60
2017-11-14T22:01:16.713Z,7.60
2017-11-14T22:03:44.213Z,7.60
2017-11-14T22:06:11.722Z,7.60
2017-11-14T22:08:39.958Z,7.60
2017-11-14T22:11:07.509Z,7.60
2017-11-14T22:13:35.838Z,7.60
2017-11-14T22:16:03.365Z,7.60
2017-11-14T22:18:31.109Z,7.60
2017-11-14T22:20:58.617Z,7.60
2017-11-14T22:23:27.121Z,7.60
2017-11-14T22:25:54.687Z,7.60
2017-11-14T22:28:22.189Z,7.60
2017-11-14T22:30:49.702Z,7.60
2017-11-14T22:33:17.234Z,7.70
2017-11-14T22:35:45.499Z,7.60
2017-11-14T22:38:13.890Z,7.60
2017-11-14T22:40:41.559Z,7.60
2017-11-14T22:43:09.066Z,7.60
2017-11-14T22:45:49.544Z,7.60
2017-11-14T22:48:17.150Z,7.60
2017-11-14T22:50:44.650Z,6.70
2017-11-14T22:53:12.403Z,7.70
2017-11-14T22:55:39.901Z,7.70
2017-11-14T22:58:07.412Z,7.70
2017-11-14T23:00:35.050Z,7.60
2017-11-14T23:03:02.554Z,7.60
2017-11-14T23:05:30.289Z,7.60
2017-11-14T23:07:57.865Z,7.70
2017-11-14T23:10:25.474Z,7.70
2017-11-14T23:12:52.976Z,7.70
2017-11-14T23:15:20.482Z,7.70
2017-11-14T23:17:47.980Z,7.80
2017-11-14T23:20:15.483Z,7.80
2017-11-14T23:22:43.762Z,7.70
2017-11-14T23:25:11.266Z,7.70
2017-11-14T23:27:38.773Z,7.70
2017-11-14T23:30:07.366Z,7.70
2017-11-14T23:32:35.074Z,7.70
2017-11-14T23:35:02.586Z,7.70
2017-11-14T23:37:30.110Z,7.70
2017-11-14T23:39:58.672Z,7.70
2017-11-14T23:42:26.173Z,7.80
2017-11-14T23:44:54.407Z,7.80
2017-11-14T23:47:21.904Z,7.70
2017-11-14T23:49:49.426Z,7.80
2017-11-14T23:52:16.925Z,7.80
2017-11-14T23:54:45.153Z,7.70
2017-11-14T23:57:12.709Z,7.70
2017-11-14T23:59:40.221Z,7.70
